createdAt,value
2022-07-26T00:01:54.958Z,23.97
2022-07-26T00:04:23.869Z,24.04
2022-07-26T00:06:52.332Z,24.02
2022-07-26T00:09:20.939Z,24.00
2022-07-26T00:11:49.480Z,23.90
2022-07-26T00:14:19.364Z,23.67
2022-07-26T00:16:48.205Z,23.51
2022-07-26T00:19:16.801Z,23.46
2022-07-26T00:21:45.464Z,23.37
2022-07-26T00:24:14.105Z,23.37
2022-07-26T00:26:42.618Z,23.28
2022-07-26T00:29:11.933Z,23.17
2022-07-26T00:31:42.016Z,23.16
2022-07-26T00:34:10.553Z,23.13
2022-07-26T00:36:41.805Z,23.20
2022-07-26T00:39:10.775Z,23.25
2022-07-26T00:41:39.762Z,23.34
2022-07-26T00:44:08.312Z,23.38
2022-07-26T00:46:37.030Z,23.45
2022-07-26T00:49:07.210Z,23.52
2022-07-26T00:51:36.183Z,23.52
2022-07-26T00:54:05.663Z,23.51
2022-07-26T00:56:35.572Z,23.54
2022-07-26T00:59:05.181Z,23.54
2022-07-26T01:01:33.965Z,23.44
2022-07-26T01:04:02.759Z,23.41
2022-07-26T01:06:32.879Z,23.49
2022-07-26T01:09:01.871Z,23.58
2022-07-26T01:11:30.359Z,23.59
2022-07-26T01:13:59.060Z,23.50
2022-07-26T01:16:27.658Z,23.33
2022-07-26T01:18:56.139Z,23.26
2022-07-26T01:21:30.141Z,23.24
2022-07-26T01:23:58.688Z,23.28
2022-07-26T01:26:27.224Z,23.34
2022-07-26T01:28:55.835Z,23.35
2022-07-26T01:31:24.751Z,23.33
2022-07-26T01:33:53.224Z,23.31
2022-07-26T01:36:21.785Z,23.28
2022-07-26T01:38:51.721Z,23.23
2022-07-26T01:41:37.411Z,23.14
2022-07-26T01:44:08.098Z,22.98
2022-07-26T01:46:37.339Z,22.80
2022-07-26T01:49:07.289Z,22.66
2022-07-26T01:51:36.231Z,22.53
2022-07-26T01:54:06.667Z,22.47
2022-07-26T01:56:35.299Z,22.42
2022-07-26T01:59:04.263Z,22.35
2022-07-26T02:01:38.010Z,22.22
2022-07-26T02:04:09.304Z,22.12
2022-07-26T02:06:38.070Z,22.03
2022-07-26T02:09:12.737Z,21.94
2022-07-26T02:11:41.809Z,21.77
2022-07-26T02:14:10.767Z,21.61
2022-07-26T02:16:39.520Z,21.61
2022-07-26T02:19:08.104Z,21.77
2022-07-26T02:21:36.829Z,21.99
2022-07-26T02:24:05.773Z,22.09
2022-07-26T02:26:35.880Z,22.02
2022-07-26T02:29:04.451Z,21.98
2022-07-26T02:31:33.266Z,21.98
2022-07-26T02:34:01.733Z,22.02
2022-07-26T02:36:30.304Z,22.20
2022-07-26T02:38:58.779Z,22.34
2022-07-26T02:41:27.297Z,22.42
2022-07-26T02:43:57.226Z,22.59
2022-07-26T02:46:25.872Z,22.78
2022-07-26T02:48:54.429Z,22.87
2022-07-26T02:51:22.972Z,22.90
2022-07-26T02:53:51.438Z,23.00
2022-07-26T02:56:19.984Z,23.07
2022-07-26T02:58:48.861Z,23.13
2022-07-26T03:01:18.845Z,23.17
2022-07-26T03:03:50.601Z,23.14
2022-07-26T03:06:20.433Z,23.03
2022-07-26T03:08:49.449Z,22.97
2022-07-26T03:11:18.018Z,22.86
2022-07-26T03:13:46.557Z,22.63
2022-07-26T03:16:17.834Z,22.49
2022-07-26T03:18:49.821Z,22.48
2022-07-26T03:21:18.293Z,22.61
2022-07-26T03:23:47.064Z,22.71
2022-07-26T03:26:15.935Z,22.76
2022-07-26T03:28:44.696Z,22.88
2022-07-26T03:31:13.745Z,22.83
2022-07-26T03:33:42.404Z,22.77
2022-07-26T03:36:15.346Z,22.70
2022-07-26T03:38:44.289Z,22.67
2022-07-26T03:41:13.860Z,22.68
2022-07-26T03:43:42.762Z,22.68
2022-07-26T03:46:11.247Z,22.72
2022-07-26T03:48:39.891Z,22.73
2022-07-26T03:51:08.387Z,22.70
2022-07-26T03:53:38.253Z,22.67
2022-07-26T03:56:25.018Z,22.71
2022-07-26T03:58:53.623Z,22.70
2022-07-26T04:01:22.352Z,22.68
2022-07-26T04:03:50.872Z,22.65
2022-07-26T04:06:19.732Z,22.56
2022-07-26T04:08:53.073Z,22.46
2022-07-26T04:11:21.948Z,22.38
2022-07-26T04:13:56.191Z,22.30
2022-07-26T04:16:25.263Z,22.27
2022-07-26T04:18:54.375Z,22.23
2022-07-26T04:21:23.283Z,22.15
2022-07-26T04:23:53.672Z,22.02
2022-07-26T04:26:22.388Z,21.95
2022-07-26T04:28:51.000Z,21.89
2022-07-26T04:31:19.988Z,21.88
2022-07-26T04:33:48.668Z,21.88
2022-07-26T04:36:17.221Z,21.87
2022-07-26T04:38:45.937Z,21.77
2022-07-26T04:41:15.812Z,21.70
2022-07-26T04:43:44.393Z,21.79
2022-07-26T04:46:12.914Z,21.96
2022-07-26T04:48:41.505Z,22.07
2022-07-26T04:51:09.992Z,22.18
2022-07-26T04:53:38.728Z,22.17
2022-07-26T04:56:07.692Z,22.17
2022-07-26T04:58:37.701Z,22.12
2022-07-26T05:01:10.706Z,22.10
2022-07-26T05:03:40.101Z,22.03
2022-07-26T05:06:08.688Z,22.07
2022-07-26T05:08:37.232Z,22.07
2022-07-26T05:11:05.761Z,22.07
2022-07-26T05:13:34.459Z,22.12
2022-07-26T05:16:11.749Z,22.20
2022-07-26T05:18:45.474Z,22.37
2022-07-26T05:21:14.801Z,22.46
2022-07-26T05:23:43.302Z,22.46
2022-07-26T05:26:12.468Z,22.56
2022-07-26T05:28:41.588Z,22.69
2022-07-26T05:31:11.837Z,22.72
2022-07-26T05:33:40.725Z,22.68
2022-07-26T05:36:09.908Z,22.70
2022-07-26T05:38:38.468Z,22.74
2022-07-26T05:41:07.544Z,22.74
2022-07-26T05:43:41.500Z,22.75
2022-07-26T05:46:13.415Z,22.82
2022-07-26T05:48:42.010Z,22.84
2022-07-26T05:51:10.846Z,22.85
2022-07-26T05:53:40.032Z,22.83
2022-07-26T05:56:09.042Z,22.77
2022-07-26T05:58:37.759Z,22.78
2022-07-26T06:01:06.592Z,22.86
2022-07-26T06:03:36.521Z,22.93
2022-07-26T06:06:05.420Z,22.98
2022-07-26T06:08:34.214Z,22.93
2022-07-26T06:11:02.804Z,22.95
2022-07-26T06:13:31.553Z,22.97
2022-07-26T06:16:00.087Z,22.95
2022-07-26T06:18:28.799Z,22.91
2022-07-26T06:21:02.092Z,22.83
2022-07-26T06:23:34.605Z,22.79
2022-07-26T06:26:05.170Z,22.79
2022-07-26T06:28:34.560Z,22.78
2022-07-26T06:31:03.079Z,22.76
2022-07-26T06:33:31.985Z,22.77
2022-07-26T06:36:01.805Z,22.71
2022-07-26T06:38:30.344Z,22.55
2022-07-26T06:40:59.540Z,22.44
2022-07-26T06:43:28.119Z,22.37
2022-07-26T06:45:56.725Z,22.30
2022-07-26T06:48:25.273Z,22.22
2022-07-26T06:50:53.918Z,22.19
2022-07-26T06:53:23.895Z,22.14
2022-07-26T06:55:52.356Z,22.12
2022-07-26T06:58:20.893Z,22.13
2022-07-26T07:00:49.517Z,22.14
2022-07-26T07:03:18.103Z,22.20
2022-07-26T07:05:50.006Z,22.29
2022-07-26T07:08:21.395Z,22.30
2022-07-26T07:10:53.509Z,22.20
2022-07-26T07:13:23.057Z,22.19
2022-07-26T07:15:51.740Z,22.20
2022-07-26T07:18:22.164Z,22.23
2022-07-26T07:20:50.634Z,22.23
2022-07-26T07:23:22.325Z,22.19
2022-07-26T07:25:51.140Z,22.16
2022-07-26T07:28:21.261Z,22.14
2022-07-26T07:30:52.456Z,22.17
2022-07-26T07:33:22.862Z,22.16
2022-07-26T07:35:53.789Z,22.15
2022-07-26T07:38:22.637Z,22.14
2022-07-26T07:40:51.731Z,22.15
2022-07-26T07:43:21.727Z,22.21
2022-07-26T07:45:50.217Z,22.23
2022-07-26T07:48:18.952Z,22.15
2022-07-26T07:50:47.561Z,22.13
2022-07-26T07:53:16.110Z,22.20
2022-07-26T07:55:46.715Z,22.23
2022-07-26T07:58:17.332Z,22.43
2022-07-26T08:00:49.264Z,22.59
2022-07-26T08:03:18.816Z,22.69
2022-07-26T08:05:49.719Z,22.76
2022-07-26T08:08:22.146Z,22.74
2022-07-26T08:10:53.513Z,22.80
2022-07-26T08:13:24.135Z,22.87
2022-07-26T08:15:55.800Z,23.00
2022-07-26T08:18:25.196Z,23.20
2022-07-26T08:20:55.005Z,23.32
2022-07-26T08:23:23.761Z,23.46
2022-07-26T08:25:59.608Z,23.49
2022-07-26T08:28:47.943Z,23.42
2022-07-26T08:31:20.053Z,23.43
2022-07-26T08:33:49.106Z,23.52
2022-07-26T08:36:18.558Z,23.60
2022-07-26T08:38:47.994Z,23.54
2022-07-26T08:41:17.923Z,23.48
2022-07-26T08:43:51.558Z,23.57
2022-07-26T08:46:26.033Z,23.64
2022-07-26T08:48:55.716Z,23.64
2022-07-26T08:51:25.625Z,23.66
2022-07-26T08:54:05.380Z,23.69
2022-07-26T08:56:35.891Z,23.47
2022-07-26T08:59:18.782Z,23.33
2022-07-26T09:01:58.657Z,23.28
2022-07-26T09:04:33.869Z,23.24
2022-07-26T09:07:06.460Z,23.17
2022-07-26T09:09:37.311Z,23.13
2022-07-26T09:12:17.905Z,23.21
2022-07-26T09:14:47.777Z,23.28
2022-07-26T09:17:19.628Z,23.24
2022-07-26T09:20:03.960Z,23.33
2022-07-26T09:22:32.547Z,23.38
2022-07-26T09:25:01.043Z,23.56
2022-07-26T09:27:36.964Z,23.76
2022-07-26T09:30:10.221Z,23.86
2022-07-26T09:32:40.364Z,23.88
2022-07-26T09:35:45.300Z,23.82
2022-07-26T09:38:13.183Z,23.71
2022-07-26T09:40:41.976Z,23.85
2022-07-26T09:43:16.508Z,24.01
2022-07-26T09:46:05.979Z,24.18
2022-07-26T09:49:08.463Z,24.20
2022-07-26T09:51:37.895Z,24.24
2022-07-26T09:54:06.904Z,24.23
2022-07-26T09:56:45.271Z,24.16
2022-07-26T09:59:16.083Z,24.13
2022-07-26T10:01:45.256Z,23.98
2022-07-26T10:04:15.810Z,23.84
2022-07-26T10:06:45.387Z,23.64
2022-07-26T10:09:14.827Z,23.26
2022-07-26T10:11:47.475Z,23.27
2022-07-26T10:14:42.315Z,23.33
2022-07-26T10:17:47.181Z,23.42
2022-07-26T10:20:42.678Z,23.49
2022-07-26T10:23:47.813Z,23.43
2022-07-26T10:26:42.073Z,23.37
2022-07-26T10:29:26.246Z,23.37
2022-07-26T10:32:20.499Z,23.42
2022-07-26T10:34:49.562Z,23.27
2022-07-26T10:37:29.822Z,23.21
2022-07-26T10:40:17.947Z,23.18
2022-07-26T10:42:46.974Z,23.23
2022-07-26T10:45:20.727Z,23.31
2022-07-26T10:48:13.035Z,23.44
2022-07-26T10:50:42.919Z,23.54
2022-07-26T10:53:19.840Z,23.66
2022-07-26T10:55:50.686Z,23.71
2022-07-26T10:58:20.188Z,23.87
2022-07-26T11:00:59.757Z,24.04
2022-07-26T11:03:38.988Z,24.13
2022-07-26T11:06:13.000Z,24.20
2022-07-26T11:08:47.736Z,24.24
2022-07-26T11:11:29.698Z,24.33
2022-07-26T11:14:07.310Z,24.52
2022-07-26T11:16:40.729Z,24.75
2022-07-26T11:19:20.427Z,24.93
2022-07-26T11:21:58.668Z,25.07
2022-07-26T11:24:29.482Z,25.19
2022-07-26T11:27:03.413Z,25.19
2022-07-26T11:29:38.521Z,25.25
2022-07-26T11:32:18.604Z,25.35
2022-07-26T11:34:47.892Z,25.53
2022-07-26T11:37:16.407Z,25.67
2022-07-26T11:39:48.479Z,25.80
2022-07-26T11:42:19.709Z,25.85
2022-07-26T11:44:49.510Z,25.79
2022-07-26T11:47:20.294Z,25.51
2022-07-26T11:50:00.016Z,25.25
2022-07-26T11:52:38.567Z,25.11
2022-07-26T11:55:10.056Z,24.84
2022-07-26T11:57:38.702Z,24.71
2022-07-26T12:00:08.759Z,24.70
2022-07-26T12:02:37.508Z,24.58
2022-07-26T12:05:16.974Z,24.56
2022-07-26T12:07:56.531Z,24.58
2022-07-26T12:10:27.243Z,24.58
2022-07-26T12:13:12.563Z,24.54
2022-07-26T12:15:49.047Z,24.46
2022-07-26T12:18:25.673Z,24.45
2022-07-26T12:21:05.695Z,24.32
2022-07-26T12:23:48.089Z,24.27
2022-07-26T12:26:25.267Z,24.25
2022-07-26T12:28:54.280Z,24.23
2022-07-26T12:31:27.445Z,24.28
2022-07-26T12:33:56.504Z,24.29
2022-07-26T12:36:27.731Z,24.37
2022-07-26T12:38:57.790Z,24.42
2022-07-26T12:41:35.529Z,24.34
2022-07-26T12:44:05.059Z,24.28
2022-07-26T12:46:34.621Z,24.35
2022-07-26T12:49:04.043Z,24.29
2022-07-26T12:51:32.733Z,24.25
2022-07-26T12:54:01.251Z,24.20
2022-07-26T12:56:29.739Z,24.17
2022-07-26T12:59:02.027Z,24.24
2022-07-26T13:01:31.586Z,24.28
2022-07-26T13:04:01.612Z,24.26
2022-07-26T13:06:30.276Z,24.26
2022-07-26T13:08:58.775Z,24.24
2022-07-26T13:11:27.498Z,24.41
2022-07-26T13:13:56.755Z,24.56
2022-07-26T13:16:26.788Z,24.81
2022-07-26T13:18:55.363Z,25.01
2022-07-26T13:21:24.078Z,25.18
2022-07-26T13:23:52.700Z,25.18
2022-07-26T13:26:22.397Z,25.17
2022-07-26T13:28:51.531Z,25.11
2022-07-26T13:31:20.596Z,25.13
2022-07-26T13:33:50.625Z,25.06
2022-07-26T13:36:19.233Z,25.09
2022-07-26T13:38:47.775Z,25.04
2022-07-26T13:41:16.275Z,25.13
2022-07-26T13:43:44.852Z,25.25
2022-07-26T13:46:14.137Z,25.19
2022-07-26T13:48:59.624Z,25.19
2022-07-26T13:51:50.283Z,25.18
2022-07-26T13:54:20.307Z,25.19
2022-07-26T13:56:49.426Z,25.30
2022-07-26T13:59:18.270Z,25.41
2022-07-26T14:01:46.850Z,25.43
2022-07-26T14:04:16.657Z,25.47
2022-07-26T14:06:46.854Z,25.43
2022-07-26T14:09:15.809Z,25.46
2022-07-26T14:11:44.764Z,25.47
2022-07-26T14:14:14.172Z,25.49
2022-07-26T14:16:43.133Z,25.52
2022-07-26T14:19:16.768Z,25.78
2022-07-26T14:21:48.826Z,26.05
2022-07-26T14:24:29.387Z,26.32
2022-07-26T14:26:59.714Z,26.61
2022-07-26T14:29:29.181Z,26.74
2022-07-26T14:31:57.977Z,26.98
2022-07-26T14:34:26.560Z,27.22
2022-07-26T14:36:56.512Z,27.34
2022-07-26T14:39:25.159Z,27.32
2022-07-26T14:41:53.623Z,27.35
2022-07-26T14:44:22.493Z,27.28
2022-07-26T14:46:51.087Z,27.20
2022-07-26T14:49:19.914Z,27.11
2022-07-26T14:51:48.552Z,26.96
2022-07-26T14:54:19.832Z,26.90
2022-07-26T14:56:49.185Z,26.92
2022-07-26T14:59:18.096Z,26.84
2022-07-26T15:01:46.882Z,26.69
2022-07-26T15:04:15.484Z,26.58
2022-07-26T15:06:43.996Z,26.55
2022-07-26T15:09:12.563Z,26.48
2022-07-26T15:11:42.916Z,26.41
2022-07-26T15:14:11.702Z,26.34
2022-07-26T15:16:40.533Z,26.35
2022-07-26T15:19:09.152Z,26.27
2022-07-26T15:21:37.777Z,26.18
2022-07-26T15:24:06.736Z,25.99
2022-07-26T15:26:35.274Z,25.88
2022-07-26T15:29:05.282Z,25.82
2022-07-26T15:31:36.670Z,25.67
2022-07-26T15:34:09.691Z,25.58
2022-07-26T15:36:39.026Z,25.67
2022-07-26T15:39:23.517Z,25.72
2022-07-26T15:41:52.540Z,25.67
2022-07-26T15:44:25.615Z,25.71
2022-07-26T15:46:54.515Z,25.64
2022-07-26T15:49:23.820Z,25.63
2022-07-26T15:51:52.290Z,25.59
2022-07-26T15:54:20.921Z,25.60
2022-07-26T15:56:49.555Z,25.55
2022-07-26T15:59:18.106Z,25.45
2022-07-26T16:01:48.031Z,25.38
2022-07-26T16:04:16.682Z,25.37
2022-07-26T16:06:45.207Z,25.33
2022-07-26T16:09:18.605Z,25.30
2022-07-26T16:11:48.629Z,25.23
2022-07-26T16:14:17.756Z,25.22
2022-07-26T16:16:47.868Z,25.23
2022-07-26T16:19:16.465Z,25.27
2022-07-26T16:21:44.949Z,25.24
2022-07-26T16:24:13.500Z,25.23
2022-07-26T16:26:43.800Z,25.17
2022-07-26T16:29:12.683Z,25.08
2022-07-26T16:31:42.598Z,25.03
2022-07-26T16:34:12.660Z,24.99
2022-07-26T16:36:42.383Z,24.88
2022-07-26T16:39:11.555Z,24.84
2022-07-26T16:41:40.384Z,24.88
2022-07-26T16:44:09.064Z,24.89
2022-07-26T16:46:37.699Z,24.82
2022-07-26T16:49:06.392Z,24.81
2022-07-26T16:51:36.551Z,24.84
2022-07-26T16:54:05.407Z,24.87
2022-07-26T16:56:33.954Z,24.86
2022-07-26T16:59:04.028Z,24.82
2022-07-26T17:01:33.992Z,24.74
2022-07-26T17:04:02.648Z,24.65
2022-07-26T17:06:31.143Z,24.58
2022-07-26T17:09:01.060Z,24.54
2022-07-26T17:11:30.316Z,24.58
2022-07-26T17:13:59.021Z,24.61
2022-07-26T17:16:27.572Z,24.67
2022-07-26T17:18:56.943Z,24.75
2022-07-26T17:21:25.600Z,24.81
2022-07-26T17:23:55.440Z,24.88
2022-07-26T17:26:25.477Z,24.93
2022-07-26T17:28:54.033Z,24.95
2022-07-26T17:31:22.644Z,24.92
2022-07-26T17:33:51.816Z,24.98
2022-07-26T17:36:22.890Z,25.05
2022-07-26T17:38:51.513Z,25.09
2022-07-26T17:41:21.051Z,25.10
2022-07-26T17:43:52.852Z,25.10
2022-07-26T17:46:22.522Z,25.10
2022-07-26T17:48:51.155Z,25.10
2022-07-26T17:51:20.157Z,25.11
2022-07-26T17:53:52.821Z,25.07
2022-07-26T17:56:21.817Z,25.01
2022-07-26T17:58:51.749Z,24.96
2022-07-26T18:01:20.232Z,24.96
2022-07-26T18:03:49.876Z,24.95
2022-07-26T18:06:18.903Z,24.91
2022-07-26T18:08:47.778Z,24.85
2022-07-26T18:11:16.368Z,24.79
2022-07-26T18:13:45.073Z,24.71
2022-07-26T18:16:15.139Z,24.66
2022-07-26T18:18:43.797Z,24.60
2022-07-26T18:21:12.500Z,24.57
2022-07-26T18:24:00.304Z,24.60
2022-07-26T18:26:30.017Z,24.70
2022-07-26T18:28:58.902Z,24.79
2022-07-26T18:31:28.932Z,24.77
2022-07-26T18:33:57.590Z,24.77
2022-07-26T18:36:26.584Z,24.78
2022-07-26T18:38:55.048Z,24.75
2022-07-26T18:41:23.592Z,24.75
2022-07-26T18:43:52.184Z,24.70
2022-07-26T18:46:20.897Z,24.63
2022-07-26T18:48:50.959Z,24.51
2022-07-26T18:51:19.603Z,24.46
2022-07-26T18:53:48.291Z,24.50
2022-07-26T18:56:16.773Z,24.57
2022-07-26T18:58:45.476Z,24.61
2022-07-26T19:01:14.511Z,24.62
2022-07-26T19:03:43.141Z,24.53
2022-07-26T19:06:13.177Z,24.45
2022-07-26T19:08:41.944Z,24.45
2022-07-26T19:11:10.504Z,24.43
2022-07-26T19:13:39.401Z,24.36
2022-07-26T19:16:09.197Z,24.26
2022-07-26T19:18:37.925Z,24.16
2022-07-26T19:21:06.905Z,24.06
2022-07-26T19:23:40.252Z,23.99
2022-07-26T19:26:09.000Z,24.02
2022-07-26T19:28:37.634Z,24.07
2022-07-26T19:31:06.381Z,24.11
2022-07-26T19:33:35.017Z,24.10
2022-07-26T19:36:03.827Z,24.13
2022-07-26T19:38:33.269Z,24.09
2022-07-26T19:41:03.386Z,24.11
2022-07-26T19:43:31.996Z,24.10
2022-07-26T19:46:02.028Z,24.08
2022-07-26T19:48:30.703Z,24.09
2022-07-26T19:50:59.518Z,24.00
2022-07-26T19:53:28.031Z,23.93
2022-07-26T19:55:56.523Z,23.75
2022-07-26T19:58:27.063Z,23.60
2022-07-26T20:00:55.938Z,23.35
2022-07-26T20:03:24.456Z,23.23
2022-07-26T20:05:55.658Z,23.23
2022-07-26T20:08:24.265Z,23.11
2022-07-26T20:10:52.951Z,23.00
2022-07-26T20:13:21.553Z,22.95
2022-07-26T20:15:51.470Z,23.06
2022-07-26T20:18:22.071Z,23.14
2022-07-26T20:20:53.356Z,23.18
2022-07-26T20:23:21.947Z,23.24
2022-07-26T20:25:50.699Z,23.29
2022-07-26T20:28:19.518Z,23.26
2022-07-26T20:30:51.544Z,23.20
2022-07-26T20:33:22.276Z,23.19
2022-07-26T20:35:54.901Z,23.17
2022-07-26T20:38:25.146Z,23.13
2022-07-26T20:40:53.954Z,23.05
2022-07-26T20:43:22.851Z,22.93
2022-07-26T20:45:51.628Z,22.87
2022-07-26T20:48:21.625Z,22.77
2022-07-26T20:50:50.153Z,22.59
2022-07-26T20:53:18.937Z,22.52
2022-07-26T20:55:47.443Z,22.42
2022-07-26T20:58:17.577Z,22.42
2022-07-26T21:00:46.137Z,22.49
2022-07-26T21:03:16.793Z,22.55
2022-07-26T21:05:46.920Z,22.54
2022-07-26T21:08:15.426Z,22.54
2022-07-26T21:10:45.982Z,22.48
2022-07-26T21:13:14.777Z,22.39
2022-07-26T21:15:43.640Z,22.21
2022-07-26T21:18:12.248Z,22.13
2022-07-26T21:20:40.925Z,22.10
2022-07-26T21:23:17.509Z,22.01
2022-07-26T21:25:47.091Z,21.94
2022-07-26T21:28:15.600Z,21.83
2022-07-26T21:30:44.184Z,21.70
2022-07-26T21:33:12.680Z,21.67
2022-07-26T21:35:42.240Z,21.74
2022-07-26T21:38:12.469Z,21.91
2022-07-26T21:40:43.519Z,22.02
2022-07-26T21:43:12.192Z,22.07
2022-07-26T21:45:43.085Z,22.10
2022-07-26T21:48:12.037Z,22.15
2022-07-26T21:50:40.613Z,22.19
2022-07-26T21:53:09.127Z,22.23
2022-07-26T21:55:39.772Z,22.23
2022-07-26T21:58:08.424Z,22.17
2022-07-26T22:00:39.198Z,22.00
2022-07-26T22:03:08.877Z,21.82
2022-07-26T22:05:39.188Z,21.67
2022-07-26T22:08:09.007Z,21.57
2022-07-26T22:10:44.286Z,21.58
2022-07-26T22:13:14.717Z,21.53
2022-07-26T22:15:44.100Z,21.57
2022-07-26T22:18:13.484Z,21.55
2022-07-26T22:20:42.709Z,21.62
2022-07-26T22:23:13.122Z,21.59
2022-07-26T22:25:43.688Z,21.64
2022-07-26T22:28:17.979Z,21.62
2022-07-26T22:30:47.574Z,21.62
2022-07-26T22:33:17.639Z,21.61
2022-07-26T22:35:46.312Z,21.67
2022-07-26T22:38:15.257Z,21.76
2022-07-26T22:40:45.290Z,21.81
2022-07-26T22:43:14.904Z,21.83
2022-07-26T22:45:43.817Z,21.86
2022-07-26T22:48:12.485Z,21.84
2022-07-26T22:50:42.386Z,21.75
2022-07-26T22:53:10.938Z,21.71
2022-07-26T22:55:39.465Z,21.67
2022-07-26T22:58:09.437Z,21.60
2022-07-26T23:00:38.033Z,21.62
2022-07-26T23:03:11.887Z,21.47
2022-07-26T23:05:52.433Z,21.08
2022-07-26T23:08:45.782Z,20.93
2022-07-26T23:11:09.812Z,20.99
2022-07-26T23:13:40.960Z,21.20
2022-07-26T23:16:09.611Z,21.32
2022-07-26T23:18:38.244Z,21.35
2022-07-26T23:21:07.140Z,21.37
2022-07-26T23:23:35.718Z,21.46
2022-07-26T23:26:04.224Z,21.51
2022-07-26T23:28:37.117Z,21.46
2022-07-26T23:31:12.554Z,21.41
2022-07-26T23:33:50.662Z,21.37
2022-07-26T23:36:26.358Z,21.36
2022-07-26T23:38:55.756Z,21.32
2022-07-26T23:41:25.237Z,21.31
2022-07-26T23:43:54.199Z,21.29
2022-07-26T23:46:24.919Z,21.27
2022-07-26T23:48:55.030Z,21.29
2022-07-26T23:51:24.046Z,21.27
2022-07-26T23:53:53.168Z,21.17
2022-07-26T23:56:21.710Z,21.07
2022-07-26T23:58:50.885Z,20.98
